La Crosse Municipal Airport
KLSE : now visible

Aeroporto :











RITROVATECI SU...

 
LOGIN :

Iscrizione | Disclaimer

   EN    FR    IT 

 









Sommario :    VFR   VFR Marginale   IFR   IFR Intensivo   IFR Molto Intensivo
Visibilità : 
Base nubi : 
>= 8 km
>= 3000ft
5 / 8 km
1000 / 3000 ft
1500m / 5 km
500 / 1000 ft
800 / 1500m
200 / 500 ft
< 800m
< 200 ft
Simboli :   Temporali  Nebbia  Neve Forte  Precipitazioni Forti  Vento > 20 kt







- Altitudine del aeroporto : 655 ft
- Codice IATA : LSE


KLSE - La Crosse Municipal

ULTIMO METAR :
  • 241953Z 19015G20KT 10SM CLR 21/04 A2983 RMK AO2 SLP098 T02110039

METARs OBSOLETI :
  • 241853Z 18015KT 10SM CLR 21/03 A2985 RMK AO2 SLP104 T02110033
  • 241753Z 17014G22KT 10SM CLR 20/05 A2987 RMK AO2 SLP114 T02000050 10200 20067 58024

TAF KLSE
Valido dal 24 a 18 ore il 25 a 18 ore UTC


241720Z 2418/2518 19011G16KT P6SM SKC
FM250000 18008KT P6SM SCT140
FM251200 28007KT P6SM VCSH SCT050 BKN070
FM251500 33008KT P6SM VCSH SCT035 BKN050
FIR KZMP / America del Nord



MetMap, La meteo Aeronautica in un colpo d'occhio ! - Copyright ORBIFLY Dicembre 2007 - Disclaimer

ORBIFLY MET'MAP TEAM :

Programmazione e sviluppo : Alexandra Zaïnal
Concezione e sviluppo : Baudouin d'Aumeries
Co-Programmazione e sviluppo : Marc-Olivier Méhu
Supporto tecnico e logistico : Manuel Goepfert
Aiuto per la traduzione : Arnaldo La Scala

Contatto : metmap@orbifly.com




FONTI E CREDITI :

   NOAA       Earth
Advisory